Terminal Aerodrome Forecast
Issued by NWS

Home | Current Version | Previous Version | Text Only | Print | Product List | Glossary On
Versions: 1 2 3 4 5 6 7 8 9 10 11 12 13 14 15 16 17 18 19 20 21 22 23
000
FTUS45 KSLC 191510 AAB
TAF36U
TAF AMD
K36U 191510Z 1915/2012 22012G20KT P6SM VCSH BKN045 OVC050
     FM191600 23014G18KT 4SM -SN BKN035 OVC040
     FM192100 21012KT 2SM -SN BR SCT007 BKN015
     FM200200 VRB05KT P6SM -SHSN SCT007 BKN015=

USA.gov is the U.S. government's official web portal to all federal, state and local government web resources and services.